createdAt,value
2018-01-17T00:06:56.554Z,71.20
2018-01-17T00:16:58.118Z,72.70
2018-01-17T00:26:59.657Z,73.80
2018-01-17T00:37:01.175Z,74.10
2018-01-17T00:47:02.690Z,73.30
2018-01-17T00:57:04.962Z,75.00
2018-01-17T01:07:06.590Z,74.90
2018-01-17T01:17:08.339Z,76.40
2018-01-17T01:27:09.896Z,80.50
2018-01-17T01:37:11.522Z,83.20
2018-01-17T01:47:13.041Z,83.90
2018-01-17T01:57:14.556Z,83.90
2018-01-17T02:07:16.071Z,83.80
2018-01-17T02:17:17.593Z,83.20
2018-01-17T02:27:19.118Z,82.70
2018-01-17T02:37:21.364Z,82.50
2018-01-17T02:47:22.885Z,82.50
2018-01-17T02:57:24.556Z,81.10
2018-01-17T03:07:26.452Z,80.50
2018-01-17T03:17:28.076Z,80.50
2018-01-17T03:27:29.696Z,80.90
2018-01-17T03:37:31.336Z,80.60
2018-01-17T03:47:33.605Z,79.20
2018-01-17T03:57:35.130Z,79.20
2018-01-17T04:07:36.668Z,75.20
2018-01-17T04:17:38.230Z,72.70
2018-01-17T04:27:39.788Z,71.40
2018-01-17T04:37:41.575Z,70.00
2018-01-17T04:47:43.807Z,68.70
2018-01-17T04:57:45.423Z,67.90
2018-01-17T05:07:47.863Z,66.10
2018-01-17T05:17:49.525Z,65.10
2018-01-17T05:27:51.058Z,65.30
2018-01-17T05:37:52.780Z,65.70
2018-01-17T05:47:54.303Z,66.10
2018-01-17T05:57:56.711Z,72.00
2018-01-17T06:07:58.196Z,72.00
2018-01-17T06:17:59.724Z,75.10
2018-01-17T06:28:03.367Z,85.30
2018-01-17T06:38:05.669Z,85.30
2018-01-17T06:48:07.209Z,85.20
2018-01-17T06:58:09.296Z,83.70
2018-01-17T07:08:11.566Z,83.10
2018-01-17T07:18:13.074Z,83.00
2018-01-17T07:28:14.667Z,82.90
2018-01-17T07:38:16.195Z,82.50
2018-01-17T07:48:17.729Z,80.40
2018-01-17T07:58:19.361Z,83.00
2018-01-17T08:08:20.925Z,84.30
2018-01-17T08:18:23.266Z,86.30
2018-01-17T08:28:24.806Z,86.30
2018-01-17T08:38:26.429Z,84.60
2018-01-17T08:48:27.957Z,80.00
2018-01-17T08:58:29.481Z,75.20
2018-01-17T09:08:31.054Z,71.40
2018-01-17T09:18:32.595Z,70.10
2018-01-17T09:28:34.135Z,68.20
2018-01-17T09:38:36.446Z,67.70
2018-01-17T09:48:39.746Z,66.40
2018-01-17T09:58:41.300Z,66.40
2018-01-17T10:08:42.866Z,64.50
2018-01-17T10:18:45.129Z,64.00
2018-01-17T10:28:46.730Z,61.30
2018-01-17T10:38:48.344Z,60.60
2018-01-17T10:48:50.071Z,61.30
2018-01-17T10:58:51.592Z,60.80
2018-01-17T11:08:53.117Z,59.20
2018-01-17T11:18:54.650Z,57.40
2018-01-17T11:28:56.353Z,55.90
2018-01-17T11:38:57.941Z,56.20
2018-01-17T11:48:59.696Z,56.80
2018-01-17T11:59:01.225Z,58.00
2018-01-17T12:09:02.723Z,56.50
2018-01-17T12:19:04.248Z,56.00
2018-01-17T12:29:05.916Z,56.20
2018-01-17T12:39:07.643Z,67.00
2018-01-17T12:49:09.367Z,72.20
2018-01-17T12:59:10.972Z,67.80
2018-01-17T13:09:12.500Z,62.60
2018-01-17T13:19:14.046Z,59.60
2018-01-17T13:29:15.635Z,58.70
2018-01-17T13:39:17.420Z,58.90
2018-01-17T13:49:19.710Z,60.60
2018-01-17T13:59:21.233Z,60.50
2018-01-17T14:09:22.780Z,62.10
2018-01-17T14:19:25.231Z,63.10
2018-01-17T14:29:26.815Z,65.40
2018-01-17T14:39:28.416Z,64.90
2018-01-17T14:49:29.997Z,62.90
2018-01-17T14:59:31.572Z,63.00
2018-01-17T15:09:33.204Z,64.00
2018-01-17T15:19:34.816Z,70.10
2018-01-17T15:29:36.619Z,68.30
2018-01-17T15:39:38.234Z,68.90
2018-01-17T15:49:39.968Z,67.80
2018-01-17T15:59:42.373Z,65.10
2018-01-17T16:09:44.169Z,65.50
2018-01-17T16:19:45.770Z,63.30
2018-01-17T16:29:47.263Z,63.10
2018-01-17T16:39:48.798Z,61.50
2018-01-17T16:49:51.018Z,61.20
2018-01-17T16:59:52.692Z,61.20
2018-01-17T17:09:54.290Z,61.70
2018-01-17T17:19:56.620Z,61.40
2018-01-17T17:29:58.056Z,62.20
2018-01-17T17:39:59.588Z,61.90
2018-01-17T17:50:01.106Z,61.90
2018-01-17T18:00:02.588Z,63.30
2018-01-17T18:10:04.189Z,63.40
2018-01-17T18:20:05.734Z,63.20
2018-01-17T18:30:07.990Z,60.20
2018-01-17T18:40:09.540Z,60.20
2018-01-17T18:50:11.785Z,60.50
2018-01-17T19:00:13.281Z,60.50
2018-01-17T19:10:14.774Z,60.50
2018-01-17T19:20:16.391Z,61.30
2018-01-17T19:30:17.936Z,62.40
2018-01-17T19:40:19.435Z,63.00
2018-01-17T19:50:20.943Z,63.00
2018-01-17T20:00:22.480Z,62.80
2018-01-17T20:10:23.957Z,61.80
2018-01-17T20:20:26.189Z,59.60
2018-01-17T20:30:28.495Z,59.10
2018-01-17T20:40:30.107Z,59.10
2018-01-17T20:50:32.330Z,60.10
2018-01-17T21:00:33.849Z,60.00
2018-01-17T21:10:35.457Z,61.90
2018-01-17T21:20:37.059Z,62.10
2018-01-17T21:30:39.633Z,63.30
2018-01-17T21:40:41.960Z,68.00
2018-01-17T21:50:44.268Z,69.00
2018-01-17T22:00:46.580Z,69.20
2018-01-17T22:10:48.205Z,68.90
2018-01-17T22:20:49.689Z,68.80
2018-01-17T22:30:52.047Z,69.30
2018-01-17T22:40:53.585Z,69.30
2018-01-17T22:50:55.144Z,68.40
2018-01-17T23:00:56.870Z,69.70
2018-01-17T23:10:58.430Z,70.40
2018-01-17T23:20:59.980Z,72.60
2018-01-17T23:31:01.536Z,73.00
2018-01-17T23:41:03.093Z,71.50
2018-01-17T23:51:04.655Z,71.90
